Time;durP1;ratioP1;P1;durP2;ratioP2;P2;SDS_P1;SDS_P2;PMS_P1;PMS_P2;Temp;Humidity;BMP_temperature;BMP_pressure;BME280_temperature;BME280_humidity;BME280_pressure;Samples;Min_cycle;Max_cycle;Signal;HPM_P1;HPM_P2
2023/08/13 00:02:05;;;;;;;9.68;4.22;;;;;;;18.03;74.80;101582.50;5114874;28;20030;-67
2023/08/13 00:04:30;;;;;;;11.30;3.90;;;;;;;18.12;73.97;101588.97;5114454;28;20028;-67
2023/08/13 00:06:56;;;;;;;12.65;4.60;;;;;;;17.95;74.07;101578.72;5113393;28;20035;-68
2023/08/13 00:09:21;;;;;;;8.88;3.80;;;;;;;18.02;74.59;101580.78;5112360;28;20046;-67
2023/08/13 00:11:47;;;;;;;11.60;4.00;;;;;;;17.95;75.26;101584.13;5114759;28;20032;-67
2023/08/13 00:14:12;;;;;;;17.15;4.82;;;;;;;17.90;76.06;101579.94;5113186;28;20466;-67
2023/08/13 00:16:38;;;;;;;14.25;4.18;;;;;;;17.86;76.17;101578.50;5114711;27;20057;-67
2023/08/13 00:19:04;;;;;;;13.68;4.65;;;;;;;17.87;74.91;101569.44;5112944;28;20169;-67
2023/08/13 00:21:30;;;;;;;10.40;4.20;;;;;;;17.83;74.64;101573.38;5113173;28;20472;-67
2023/08/13 00:23:55;;;;;;;8.52;3.88;;;;;;;17.80;76.06;101584.38;5112563;28;20106;-68
2023/08/13 00:26:21;;;;;;;14.02;4.28;;;;;;;17.77;76.71;101568.47;5114270;28;20099;-67
2023/08/13 00:28:47;;;;;;;11.68;4.32;;;;;;;17.77;75.65;101565.78;5114178;28;20425;-67
2023/08/13 00:31:15;;;;;;;11.35;3.95;;;;;;;17.65;75.75;101575.72;5112254;28;20072;-67
2023/08/13 00:33:41;;;;;;;14.82;4.13;;;;;;;17.60;75.84;101572.53;5113841;28;20136;-67
2023/08/13 00:36:07;;;;;;;12.10;4.47;;;;;;;17.53;76.05;101565.06;5114274;28;20028;-67
2023/08/13 00:38:32;;;;;;;15.30;5.00;;;;;;;17.57;76.05;101572.78;5113475;28;20142;-67
2023/08/13 00:40:58;;;;;;;10.75;4.30;;;;;;;17.58;76.10;101568.25;5112836;28;20484;-67
2023/08/13 00:43:23;;;;;;;17.02;5.03;;;;;;;17.55;77.28;101565.81;5112589;28;20027;-67
2023/08/13 00:45:49;;;;;;;11.80;4.28;;;;;;;17.40;77.03;101557.13;5114004;28;20019;-67
2023/08/13 00:48:15;;;;;;;13.35;4.50;;;;;;;17.47;76.93;101569.97;5112044;28;20019;-67
2023/08/13 00:50:44;;;;;;;19.48;4.78;;;;;;;17.48;77.32;101562.75;5113751;28;20394;-67
2023/08/13 00:53:10;;;;;;;10.52;4.68;;;;;;;17.49;77.72;101557.25;5113968;28;20112;-68
2023/08/13 00:55:36;;;;;;;16.33;4.57;;;;;;;17.38;77.82;101554.59;5112145;28;20027;-67
2023/08/13 00:58:04;;;;;;;10.05;4.00;;;;;;;17.30;78.54;101556.19;5112842;28;20649;-67
2023/08/13 01:00:31;;;;;;;10.90;4.22;;;;;;;17.40;77.87;101559.81;5113565;28;20038;-67
2023/08/13 01:02:56;;;;;;;10.02;3.63;;;;;;;17.33;77.91;101561.31;5112185;28;20031;-67
2023/08/13 01:05:32;;;;;;;9.27;3.70;;;;;;;17.37;78.49;101560.06;5113486;28;20027;-67
2023/08/13 01:08:18;;;;;;;13.52;4.93;;;;;;;17.33;77.93;101566.69;5113340;28;20019;-67
2023/08/13 01:10:50;;;;;;;11.80;4.95;;;;;;;17.23;78.49;101569.25;5113074;28;20399;-67
2023/08/13 01:13:25;;;;;;;11.68;4.25;;;;;;;17.31;78.14;101556.03;5113520;28;20051;-67
2023/08/13 01:15:53;;;;;;;13.70;4.72;;;;;;;17.23;78.46;101562.03;5113446;28;20027;-67
2023/08/13 01:18:21;;;;;;;9.02;4.18;;;;;;;17.27;79.13;101562.66;5111656;28;20012;-67
2023/08/13 01:20:46;;;;;;;12.38;4.53;;;;;;;17.16;78.79;101559.97;5113404;28;20382;-67
2023/08/13 01:23:14;;;;;;;13.80;4.32;;;;;;;17.13;79.44;101562.91;5111996;28;20034;-67
2023/08/13 01:25:48;;;;;;;13.90;5.07;;;;;;;17.03;79.32;101565.47;5111754;28;20023;-67
2023/08/13 01:28:26;;;;;;;14.48;4.65;;;;;;;17.06;79.76;101573.28;5113115;28;20016;-67
2023/08/13 01:30:55;;;;;;;11.93;4.70;;;;;;;16.92;79.94;101562.75;5113122;28;20027;-67
2023/08/13 01:33:29;;;;;;;11.35;4.32;;;;;;;17.01;79.55;101568.25;5111487;28;20023;-67
2023/08/13 01:36:00;;;;;;;13.63;4.85;;;;;;;17.06;79.89;101561.66;5111750;28;20024;-67
2023/08/13 01:38:26;;;;;;;11.85;4.28;;;;;;;16.91;80.15;101566.41;5112325;28;20118;-67
2023/08/13 01:40:52;;;;;;;13.27;4.55;;;;;;;16.83;81.77;101574.25;5111773;28;20106;-67
2023/08/13 01:43:18;;;;;;;10.73;4.20;;;;;;;16.98;80.76;101573.03;5111241;28;20030;-67
2023/08/13 01:45:44;;;;;;;12.55;4.07;;;;;;;16.93;80.39;101573.38;5112768;28;20031;-67
2023/08/13 01:48:09;;;;;;;11.48;4.32;;;;;;;16.94;81.03;101567.03;5111529;28;20048;-67
2023/08/13 01:50:38;;;;;;;18.48;4.80;;;;;;;16.90;81.29;101564.72;5112803;28;20027;-67
2023/08/13 01:53:03;;;;;;;11.75;4.32;;;;;;;16.95;80.52;101568.75;5112872;28;20680;-67
2023/08/13 01:55:31;;;;;;;15.52;5.00;;;;;;;16.83;81.29;101564.34;5112220;28;20038;-67
2023/08/13 01:57:56;;;;;;;12.10;4.47;;;;;;;16.82;81.46;101573.34;5112560;28;20484;-67
2023/08/13 02:00:22;;;;;;;10.55;4.28;;;;;;;16.89;81.55;101568.38;5111124;28;20050;-67
2023/08/13 02:02:47;;;;;;;9.88;3.95;;;;;;;16.88;80.79;101566.66;5112786;28;20028;-67
2023/08/13 02:05:15;;;;;;;11.73;3.90;;;;;;;16.83;81.85;101568.88;5112499;28;20024;-67
2023/08/13 02:07:40;;;;;;;12.43;4.15;;;;;;;16.77;81.74;101559.44;5111264;28;20023;-67
2023/08/13 02:10:06;;;;;;;13.73;4.65;;;;;;;16.77;81.53;101565.66;5110713;28;20409;-67
2023/08/13 02:12:31;;;;;;;12.57;4.18;;;;;;;16.65;83.17;101563.03;5111213;28;20020;-67
2023/08/13 02:14:57;;;;;;;14.65;4.43;;;;;;;16.83;82.19;101569.72;5110981;28;20028;-67
2023/08/13 02:17:22;;;;;;;12.43;4.10;;;;;;;16.79;81.98;101561.03;5112501;28;20024;-67
2023/08/13 02:19:48;;;;;;;15.27;4.15;;;;;;;16.74;82.38;101546.22;5111104;28;20024;-67
2023/08/13 02:22:13;;;;;;;13.95;4.18;;;;;;;16.76;82.51;101552.34;5112556;28;20026;-67
2023/08/13 02:24:41;;;;;;;13.13;4.30;;;;;;;16.71;82.43;101557.22;5112139;28;20020;-67
2023/08/13 02:27:06;;;;;;;13.50;4.10;;;;;;;16.75;82.68;101555.97;5111247;28;20015;-67
2023/08/13 02:29:32;;;;;;;12.52;3.85;;;;;;;16.66;83.63;101557.56;5111959;28;20077;-67
2023/08/13 02:31:57;;;;;;;13.68;4.50;;;;;;;16.55;nan;101550.31;5112587;28;20020;-67
2023/08/13 02:34:23;;;;;;;10.07;3.92;;;;;;;16.67;83.75;101553.88;5112273;28;20036;-67
2023/08/13 02:36:49;;;;;;;11.73;3.92;;;;;;;16.49;84.39;101541.88;5112415;28;20057;-67
2023/08/13 02:39:14;;;;;;;10.38;4.15;;;;;;;16.69;83.34;101546.56;5111788;28;20030;-67
2023/08/13 02:41:40;;;;;;;11.15;3.97;;;;;;;16.54;83.82;101540.56;5111165;28;20012;-67
2023/08/13 02:44:06;;;;;;;8.70;4.25;;;;;;;16.48;84.26;101545.56;5110866;28;20027;-67
2023/08/13 02:46:31;;;;;;;14.38;3.83;;;;;;;16.49;84.40;101539.19;5110981;28;20095;-67
2023/08/13 02:48:56;;;;;;;10.60;4.07;;;;;;;16.42;84.84;101537.97;5110601;28;20073;-67
2023/08/13 02:51:25;;;;;;;13.80;4.22;;;;;;;16.49;84.89;101539.19;5110928;28;20038;-67
2023/08/13 02:53:51;;;;;;;12.43;4.18;;;;;;;16.52;84.46;101547.00;5111789;28;20031;-67
2023/08/13 02:56:18;;;;;;;11.23;3.97;;;;;;;16.43;85.08;101539.66;5115064;28;20034;-67
2023/08/13 02:58:43;;;;;;;11.10;4.03;;;;;;;16.39;85.49;101544.44;5114385;28;20030;-67
2023/08/13 03:01:10;;;;;;;10.90;3.97;;;;;;;16.30;85.88;101537.94;5114850;28;20027;-67
2023/08/13 03:03:38;;;;;;;9.82;4.13;;;;;;;16.26;85.88;101532.91;5114757;28;20020;-67
2023/08/13 03:06:03;;;;;;;11.80;4.15;;;;;;;16.35;86.38;101540.25;5114630;28;20042;-67
2023/08/13 03:08:29;;;;;;;16.20;4.18;;;;;;;16.37;86.18;101538.31;5114909;28;20035;-67
2023/08/13 03:10:54;;;;;;;14.50;4.40;;;;;;;16.28;86.21;101544.38;5114424;28;20470;-67
2023/08/13 03:13:20;;;;;;;11.32;4.90;;;;;;;16.25;86.42;101542.78;5115457;28;20045;-67
2023/08/13 03:15:47;;;;;;;11.52;4.82;;;;;;;16.32;86.38;101545.84;5115803;28;20028;-67
2023/08/13 03:18:13;;;;;;;10.25;3.58;;;;;;;16.25;87.03;101539.25;5114331;28;20106;-67
2023/08/13 03:20:39;;;;;;;10.25;4.00;;;;;;;16.27;86.84;101538.16;5114514;28;20033;-67
2023/08/13 03:23:04;;;;;;;13.88;4.28;;;;;;;16.22;86.57;101547.53;5114427;28;20389;-67
2023/08/13 03:25:30;;;;;;;9.40;4.05;;;;;;;16.25;86.93;101542.78;5114975;28;20030;-67
2023/08/13 03:27:55;;;;;;;10.75;4.28;;;;;;;16.18;87.12;101546.91;5115215;28;20015;-67
2023/08/13 03:30:21;;;;;;;10.48;3.60;;;;;;;16.10;87.16;101538.56;5115399;28;20402;-67
2023/08/13 03:32:46;;;;;;;11.13;3.80;;;;;;;16.27;87.18;101545.38;5114166;28;20394;-67
2023/08/13 03:35:12;;;;;;;13.70;4.03;;;;;;;16.20;87.14;101542.25;5113975;28;20485;-67
2023/08/13 03:37:37;;;;;;;7.78;4.28;;;;;;;16.09;88.10;101547.63;5114198;28;20019;-67
2023/08/13 03:40:04;;;;;;;10.90;4.45;;;;;;;16.09;88.21;101540.41;5113420;28;20487;-67
2023/08/13 03:42:33;;;;;;;14.68;4.35;;;;;;;16.17;87.36;101541.66;5115032;28;20039;-67
2023/08/13 03:45:00;;;;;;;11.13;4.22;;;;;;;16.03;87.92;101548.03;5115145;28;20030;-67
2023/08/13 03:47:25;;;;;;;11.02;3.97;;;;;;;16.07;87.42;101544.19;5113766;28;20469;-67
2023/08/13 03:49:50;;;;;;;8.30;3.60;;;;;;;16.09;87.91;101545.78;5113483;28;20023;-67
2023/08/13 03:52:16;;;;;;;11.25;5.03;;;;;;;16.05;87.68;101552.31;5113739;28;20099;-67
2023/08/13 03:54:41;;;;;;;14.32;4.35;;;;;;;15.97;87.88;101543.13;5114396;28;20023;-67
2023/08/13 03:57:07;;;;;;;10.60;4.30;;;;;;;16.01;87.71;101550.84;5114933;28;20481;-67
2023/08/13 03:59:32;;;;;;;10.57;4.28;;;;;;;16.04;87.80;101547.94;5113334;28;20111;-67
2023/08/13 04:01:58;;;;;;;8.98;4.40;;;;;;;15.90;88.23;101546.28;5114919;28;20022;-68
2023/08/13 04:04:26;;;;;;;6.57;3.58;;;;;;;15.86;88.87;101547.50;5114693;28;20047;-67
2023/08/13 04:06:52;;;;;;;16.50;4.70;;;;;;;15.93;88.52;101553.25;5114791;28;20423;-67
2023/08/13 04:09:17;;;;;;;12.13;4.30;;;;;;;15.88;88.91;101548.25;5113750;28;20043;-67
2023/08/13 04:11:43;;;;;;;9.35;4.30;;;;;;;15.88;89.04;101545.56;5114539;28;20179;-67
2023/08/13 04:14:09;;;;;;;11.15;3.90;;;;;;;15.85;88.85;101558.31;5113444;28;20027;-67
2023/08/13 04:16:34;;;;;;;10.65;4.03;;;;;;;15.82;88.80;101540.63;5114592;28;20039;-67
2023/08/13 04:18:59;;;;;;;12.98;4.68;;;;;;;15.86;89.03;101560.06;5114318;28;20717;-67
2023/08/13 04:21:25;;;;;;;11.00;4.50;;;;;;;15.73;89.47;101552.03;5113019;28;20047;-67
2023/08/13 04:23:55;;;;;;;11.20;4.20;;;;;;;15.80;89.88;101558.69;5112406;28;20041;-67
2023/08/13 04:26:21;;;;;;;11.75;4.35;;;;;;;15.94;89.15;101554.94;5114112;28;20397;-67
2023/08/13 04:28:46;;;;;;;12.43;4.95;;;;;;;15.90;89.09;101540.06;5114010;28;20020;-67
2023/08/13 04:31:12;;;;;;;12.57;4.30;;;;;;;15.94;89.42;101554.94;5114061;28;20470;-67
2023/08/13 04:33:37;;;;;;;10.35;4.10;;;;;;;15.92;89.28;101553.38;5112930;28;20030;-67
2023/08/13 04:36:03;;;;;;;14.18;4.50;;;;;;;15.83;90.00;101541.50;5114111;28;20028;-67
2023/08/13 04:38:28;;;;;;;11.95;4.32;;;;;;;15.97;89.68;101541.34;5113294;27;20024;-67
2023/08/13 04:40:53;;;;;;;12.80;5.15;;;;;;;15.93;89.49;101544.34;5113792;28;20061;-67
2023/08/13 04:43:19;;;;;;;11.25;4.82;;;;;;;15.86;90.11;101557.38;5113905;28;20411;-67
2023/08/13 04:45:48;;;;;;;11.30;4.53;;;;;;;15.86;89.85;101560.06;5112750;28;20024;-67
2023/08/13 04:48:17;;;;;;;13.25;4.57;;;;;;;15.80;89.95;101553.31;5113669;28;20043;-67
2023/08/13 04:50:43;;;;;;;13.40;4.70;;;;;;;15.85;90.29;101564.56;5112477;28;20050;-67
2023/08/13 04:53:08;;;;;;;14.48;5.35;;;;;;;15.92;90.54;101564.13;5113834;28;20485;-67
2023/08/13 04:55:34;;;;;;;9.98;4.75;;;;;;;15.89;90.27;101567.88;5111648;28;20462;-67
2023/08/13 04:58:01;;;;;;;11.88;5.25;;;;;;;15.93;90.59;101558.63;5113670;28;20080;-67
2023/08/13 05:00:27;;;;;;;10.63;4.78;;;;;;;15.92;90.50;101556.06;5113334;28;20041;-67
2023/08/13 05:02:52;;;;;;;11.00;5.10;;;;;;;15.94;90.49;101556.78;5112167;28;20526;-67
2023/08/13 05:05:18;;;;;;;13.57;4.32;;;;;;;16.01;90.57;101555.38;5113330;28;20076;-67
2023/08/13 05:07:43;;;;;;;15.75;5.00;;;;;;;15.97;90.09;101543.13;5113466;28;20023;-67
2023/08/13 05:10:09;;;;;;;10.98;5.10;;;;;;;16.01;90.01;101547.31;5112632;28;20055;-67
2023/08/13 05:12:34;;;;;;;12.93;4.60;;;;;;;16.05;90.63;101548.78;5112088;28;20378;-67
2023/08/13 05:14:59;;;;;;;13.45;5.65;;;;;;;16.12;90.03;101550.06;5113207;28;20998;-67
2023/08/13 05:17:25;;;;;;;14.30;4.82;;;;;;;16.10;89.87;101552.00;5111472;28;20048;-67
2023/08/13 05:19:51;;;;;;;12.68;4.72;;;;;;;16.03;90.54;101550.72;5113130;28;20030;-67
2023/08/13 05:22:17;;;;;;;15.75;5.35;;;;;;;16.04;90.51;101547.09;5111886;28;20160;-67
2023/08/13 05:24:42;;;;;;;13.73;5.18;;;;;;;16.06;90.28;101562.13;5112366;28;20026;-67
2023/08/13 05:27:08;;;;;;;13.77;5.32;;;;;;;16.02;91.08;101546.34;5113326;28;20023;-67
2023/08/13 05:29:33;;;;;;;13.15;5.22;;;;;;;16.11;90.32;101565.28;5112875;28;20020;-67
2023/08/13 05:31:59;;;;;;;12.68;5.32;;;;;;;16.07;91.45;101561.13;5113044;28;20066;-67
2023/08/13 05:34:24;;;;;;;17.08;5.32;;;;;;;16.12;90.67;101569.69;5111560;28;20110;-67
2023/08/13 05:36:52;;;;;;;16.08;5.85;;;;;;;16.12;90.62;101558.97;5111643;28;20019;-67
2023/08/13 05:39:18;;;;;;;9.93;4.90;;;;;;;16.10;90.59;101563.59;5112183;28;20027;-67
2023/08/13 05:41:43;;;;;;;12.27;5.35;;;;;;;16.13;90.37;101571.41;5112909;28;20022;-67
2023/08/13 05:44:08;;;;;;;13.13;4.68;;;;;;;16.10;90.81;101571.63;5111574;28;20027;-67
2023/08/13 05:46:34;;;;;;;13.90;4.95;;;;;;;16.13;90.89;101567.88;5112787;28;20039;-67
2023/08/13 05:48:59;;;;;;;12.55;5.10;;;;;;;16.17;90.57;101573.84;5111173;28;20466;-67
2023/08/13 05:51:25;;;;;;;11.60;4.63;;;;;;;16.19;90.21;101578.13;5111448;28;20500;-67
2023/08/13 05:53:50;;;;;;;16.02;5.20;;;;;;;16.22;90.43;101569.00;5112052;28;20030;-67
2023/08/13 05:56:15;;;;;;;11.90;5.07;;;;;;;16.24;90.64;101559.88;5112629;28;20107;-67
2023/08/13 05:58:41;;;;;;;11.85;4.78;;;;;;;16.32;90.31;101570.00;5112691;28;20015;-67
2023/08/13 06:01:06;;;;;;;14.25;4.80;;;;;;;16.39;90.80;101573.97;5111431;28;20034;-67
2023/08/13 06:03:32;;;;;;;12.15;4.88;;;;;;;16.39;90.46;101578.47;5112340;28;20103;-67
2023/08/13 06:05:58;;;;;;;10.43;5.22;;;;;;;16.48;89.78;101581.31;5111305;28;20019;-67
2023/08/13 06:08:24;;;;;;;13.75;4.88;;;;;;;16.60;89.34;101579.50;5110245;28;20379;-67
2023/08/13 06:10:49;;;;;;;13.95;4.55;;;;;;;16.62;89.89;101569.53;5112465;28;20019;-67
2023/08/13 06:13:17;;;;;;;16.20;5.30;;;;;;;16.68;89.12;101585.16;5112483;28;20046;-67
2023/08/13 06:15:42;;;;;;;12.80;4.50;;;;;;;16.73;89.01;101574.03;5112420;28;20031;-67
2023/08/13 06:18:07;;;;;;;13.55;5.40;;;;;;;16.72;89.12;101569.66;5111393;28;20493;-67
2023/08/13 06:20:33;;;;;;;12.73;4.80;;;;;;;16.77;88.93;101576.41;5112127;28;20047;-67
2023/08/13 06:22:58;;;;;;;18.23;5.30;;;;;;;16.90;88.84;101572.78;5110902;28;20023;-67
2023/08/13 06:25:24;;;;;;;15.32;4.90;;;;;;;16.90;88.48;101578.16;5111880;28;20359;-67
2023/08/13 06:27:52;;;;;;;13.10;4.90;;;;;;;17.01;91.26;101580.84;5111014;28;20107;-67
2023/08/13 06:30:17;;;;;;;9.43;4.72;;;;;;;16.99;88.64;101574.72;5112382;28;20126;-67
2023/08/13 06:32:42;;;;;;;11.00;4.57;;;;;;;17.03;88.57;101584.28;5116563;28;20098;-67
2023/08/13 06:35:08;;;;;;;14.32;4.28;;;;;;;16.97;88.56;101571.31;5116373;28;20038;-67
2023/08/13 06:37:34;;;;;;;11.35;4.53;;;;;;;17.08;87.87;101586.59;5115039;28;20018;-67
2023/08/13 06:39:59;;;;;;;11.18;5.07;;;;;;;17.10;87.99;101588.19;5114484;28;20351;-67
2023/08/13 06:42:25;;;;;;;12.80;4.82;;;;;;;17.20;87.96;101585.63;5116213;28;20031;-67
2023/08/13 06:44:50;;;;;;;9.38;4.78;;;;;;;17.25;88.17;101583.44;5116257;27;20026;-67
2023/08/13 06:47:16;;;;;;;15.43;5.03;;;;;;;17.31;87.99;101584.78;5116295;28;20023;-67
2023/08/13 06:49:41;;;;;;;17.40;4.88;;;;;;;17.33;88.00;101577.44;5114387;28;20020;-67
2023/08/13 06:52:06;;;;;;;12.85;4.82;;;;;;;17.37;88.33;101573.53;5116142;28;20147;-67
2023/08/13 06:54:33;;;;;;;13.68;4.55;;;;;;;17.49;87.46;101583.28;5115530;28;20103;-68
2023/08/13 06:56:58;;;;;;;12.35;4.75;;;;;;;17.49;87.14;101569.84;5114844;28;20131;-67
2023/08/13 06:59:24;;;;;;;11.98;4.43;;;;;;;17.60;88.20;101582.44;5114400;28;20023;-67
2023/08/13 07:01:49;;;;;;;12.52;4.50;;;;;;;17.65;87.15;101569.47;5115911;28;20054;-67
2023/08/13 07:04:15;;;;;;;11.13;4.72;;;;;;;17.77;86.83;101571.16;5115628;28;20016;-67
2023/08/13 07:06:42;;;;;;;9.00;4.28;;;;;;;17.83;86.75;101561.75;5114515;28;20161;-67
2023/08/13 07:09:08;;;;;;;10.82;4.13;;;;;;;17.92;86.05;101574.44;5115121;28;20071;-67
2023/08/13 07:11:36;;;;;;;10.13;3.78;;;;;;;17.97;85.98;101579.44;5114472;28;20054;-67
2023/08/13 07:14:05;;;;;;;13.40;4.27;;;;;;;18.05;86.16;101567.06;5114333;28;20114;-67
2023/08/13 07:16:31;;;;;;;;;;;;;;;18.23;85.94;101577.28;5114785;28;20080;-67
2023/08/13 07:18:56;;;;;;;14.13;4.50;;;;;;;18.26;86.06;101580.56;5115557;28;19911;-67
2023/08/13 07:21:22;;;;;;;14.93;4.95;;;;;;;18.32;85.04;101573.81;5115183;28;20062;-67
2023/08/13 07:23:47;;;;;;;10.93;4.10;;;;;;;18.42;86.04;101572.06;5113802;28;20015;-67
2023/08/13 07:26:13;;;;;;;14.07;4.00;;;;;;;18.53;84.78;101569.31;5114296;28;20023;-67
2023/08/13 07:28:40;;;;;;;12.63;4.57;;;;;;;18.64;85.71;101578.31;5115459;28;20384;-67
2023/08/13 07:31:09;;;;;;;12.02;3.63;;;;;;;18.67;84.37;101570.81;5114094;28;20031;-67
2023/08/13 07:33:35;;;;;;;15.35;4.60;;;;;;;18.81;84.11;101569.66;5114988;28;20027;-67
2023/08/13 07:36:01;;;;;;;11.35;3.83;;;;;;;18.83;84.97;101573.09;5114030;28;20031;-67
2023/08/13 07:38:29;;;;;;;12.90;4.10;;;;;;;18.90;83.77;101565.31;5114715;28;20053;-67
2023/08/13 07:40:58;;;;;;;15.52;4.47;;;;;;;18.99;83.72;101569.91;5114784;28;20026;-67
2023/08/13 07:43:24;;;;;;;13.00;4.10;;;;;;;19.08;83.28;101563.69;5113662;28;20027;-67
2023/08/13 07:45:50;;;;;;;11.45;3.83;;;;;;;19.20;84.76;101565.31;5113855;28;20470;-67
2023/08/13 07:48:17;;;;;;;15.48;4.20;;;;;;;19.20;84.50;101561.75;5113344;28;20081;-67
2023/08/13 07:50:42;;;;;;;11.10;3.90;;;;;;;19.28;82.61;101564.66;5114895;28;20024;-67
2023/08/13 07:53:08;;;;;;;16.38;3.78;;;;;;;19.40;82.71;101565.41;5115108;28;20027;-67
2023/08/13 07:55:34;;;;;;;15.48;3.97;;;;;;;19.53;80.76;101566.03;5113140;28;20453;-67
2023/08/13 07:57:59;;;;;;;10.45;3.67;;;;;;;19.66;81.98;101560.41;5114969;28;20028;-67
2023/08/13 08:00:25;;;;;;;12.25;4.00;;;;;;;19.66;79.38;101555.00;5114557;28;20019;-67
2023/08/13 08:02:51;;;;;;;8.32;3.22;;;;;;;19.66;78.46;101552.31;5114321;28;20019;-67
2023/08/13 08:05:17;;;;;;;13.27;3.40;;;;;;;19.76;78.01;101565.81;5114581;28;20042;-67
2023/08/13 08:07:42;;;;;;;12.27;3.67;;;;;;;19.80;77.67;101565.41;5114722;28;20027;-67
2023/08/13 08:10:08;;;;;;;11.70;3.22;;;;;;;19.78;78.23;101564.69;5112716;28;20044;-67
2023/08/13 08:12:34;;;;;;;12.10;3.90;;;;;;;19.72;77.21;101560.69;5114549;28;20035;-67
2023/08/13 08:14:59;;;;;;;10.15;3.13;;;;;;;19.80;78.99;101573.50;5113127;28;20466;-67
2023/08/13 08:17:25;;;;;;;10.45;3.47;;;;;;;19.77;77.06;101571.09;5114260;28;20054;-67
2023/08/13 08:19:50;;;;;;;10.45;3.47;;;;;;;19.77;76.94;101567.53;5113046;28;20074;-67
2023/08/13 08:22:16;;;;;;;10.80;3.42;;;;;;;19.73;77.11;101566.94;5114255;28;20030;-67
2023/08/13 08:24:44;;;;;;;20.40;3.80;;;;;;;19.73;78.42;101567.78;5112540;28;20019;-67
2023/08/13 08:27:09;;;;;;;11.85;3.00;;;;;;;19.78;78.87;101559.28;5114600;28;20027;-67
2023/08/13 08:29:35;;;;;;;13.02;4.38;;;;;;;19.91;79.29;101562.59;5113874;28;20027;-67
2023/08/13 08:32:00;;;;;;;13.00;4.07;;;;;;;20.05;77.23;101569.41;5113898;28;20037;-67
2023/08/13 08:34:30;;;;;;;14.35;4.40;;;;;;;20.16;77.94;101566.56;5114007;28;20531;-67
2023/08/13 08:36:55;;;;;;;13.30;3.60;;;;;;;20.29;76.64;101570.84;5114214;28;20023;-67
2023/08/13 08:39:21;;;;;;;9.43;3.05;;;;;;;20.36;75.30;101558.47;5113565;28;20024;-67
2023/08/13 08:41:47;;;;;;;9.80;3.08;;;;;;;20.36;74.85;101569.28;5113973;28;20120;-67
2023/08/13 08:44:20;;;;;;;9.48;3.78;;;;;;;20.44;73.81;101561.28;5112414;28;20023;-67
2023/08/13 08:46:49;;;;;;;12.00;3.42;;;;;;;20.52;74.50;101560.59;5113800;28;20058;-68
2023/08/13 08:49:17;;;;;;;11.13;3.50;;;;;;;20.59;72.31;101561.75;5113602;28;20499;-67
2023/08/13 08:51:44;;;;;;;10.23;3.70;;;;;;;20.69;73.30;101561.75;5113789;28;20291;-67
2023/08/13 08:54:10;;;;;;;9.15;3.47;;;;;;;20.73;72.48;101558.59;5112671;28;20028;-68
2023/08/13 08:56:35;;;;;;;8.55;3.13;;;;;;;20.84;70.83;101557.56;5113828;28;20356;-68
2023/08/13 08:59:01;;;;;;;10.43;3.30;;;;;;;21.00;72.82;101557.81;5113527;28;20102;-68
2023/08/13 09:01:26;;;;;;;9.98;3.47;;;;;;;20.98;71.60;101546.28;5113412;28;20019;-68
2023/08/13 09:03:52;;;;;;;7.70;3.15;;;;;;;21.10;70.06;101550.50;5113523;28;20019;-68
2023/08/13 09:06:17;;;;;;;11.98;3.30;;;;;;;21.13;69.40;101548.53;5113514;28;20063;-67
2023/08/13 09:08:45;;;;;;;9.23;3.28;;;;;;;21.17;68.25;101545.34;5112737;28;20103;-67
2023/08/13 09:11:11;;;;;;;10.20;3.30;;;;;;;21.18;68.46;101538.97;5113421;28;20028;-67
2023/08/13 09:13:36;;;;;;;9.30;3.65;;;;;;;21.19;68.40;101539.81;5113420;28;20019;-67
2023/08/13 09:16:01;;;;;;;8.77;3.40;;;;;;;21.19;65.97;101539.81;5113091;28;20020;-67
2023/08/13 09:18:38;;;;;;;11.55;3.72;;;;;;;21.20;67.36;101534.22;5111808;28;20106;-67
2023/08/13 09:21:04;;;;;;;9.93;3.13;;;;;;;21.29;65.71;101537.88;5113460;28;20027;-67
2023/08/13 09:23:29;;;;;;;9.68;3.30;;;;;;;21.30;67.27;101526.09;5112648;28;20356;-67
2023/08/13 09:25:57;;;;;;;12.38;3.63;;;;;;;21.39;66.54;101540.59;5113193;28;20474;-67
2023/08/13 09:28:23;;;;;;;10.70;3.58;;;;;;;21.49;66.28;101542.22;5112917;28;20470;-67
2023/08/13 09:30:51;;;;;;;9.73;2.92;;;;;;;21.52;66.76;101535.66;5112974;28;20031;-67
2023/08/13 09:33:19;;;;;;;10.80;3.67;;;;;;;21.66;65.14;101534.31;5113001;28;20107;-67
2023/08/13 09:35:45;;;;;;;7.45;2.88;;;;;;;21.70;65.77;101531.13;5111678;28;20023;-67
2023/08/13 09:38:11;;;;;;;13.52;3.47;;;;;;;21.77;64.80;101524.13;5113003;28;20023;-67
2023/08/13 09:40:39;;;;;;;9.15;3.60;;;;;;;21.88;65.07;101520.31;5112572;28;20072;-67
2023/08/13 09:43:09;;;;;;;9.70;3.08;;;;;;;22.14;65.91;101519.53;5112856;28;20023;-67
2023/08/13 09:45:35;;;;;;;9.20;3.45;;;;;;;22.30;64.53;101519.72;5112458;28;20026;-67
2023/08/13 09:48:06;;;;;;;13.10;3.80;;;;;;;22.50;62.63;101519.53;5111388;28;20389;-67
2023/08/13 09:50:39;;;;;;;8.73;3.20;;;;;;;22.55;63.21;101515.31;5111420;28;20026;-67
2023/08/13 09:53:08;;;;;;;11.77;3.13;;;;;;;22.59;62.33;101514.00;5111270;28;20031;-68
2023/08/13 09:55:40;;;;;;;9.18;3.00;;;;;;;22.71;61.90;101511.88;5112168;28;20128;-67
2023/08/13 09:58:08;;;;;;;10.00;3.22;;;;;;;22.67;61.45;101508.63;5111595;28;20472;-67
2023/08/13 10:00:34;;;;;;;9.13;3.88;;;;;;;22.63;59.76;101501.81;5110937;28;20481;-68
2023/08/13 10:03:00;;;;;;;9.65;3.10;;;;;;;22.60;60.47;101506.72;5111368;28;20027;-68
2023/08/13 10:05:32;;;;;;;8.88;3.40;;;;;;;22.56;59.99;101503.50;5110940;28;20024;-68
2023/08/13 10:07:58;;;;;;;9.65;3.55;;;;;;;22.58;60.71;101501.44;5095030;28;20028;-68
2023/08/13 10:10:24;;;;;;;9.40;3.30;;;;;;;22.75;60.31;101497.00;5110478;28;20153;-68
2023/08/13 10:12:50;;;;;;;8.13;3.00;;;;;;;22.84;61.38;101498.72;5112520;28;20998;-67
2023/08/13 10:15:16;;;;;;;9.50;3.42;;;;;;;22.72;59.36;101508.16;5112134;28;20020;-67
2023/08/13 10:17:45;;;;;;;9.35;3.28;;;;;;;22.71;60.09;101497.44;5112536;28;20016;-68
2023/08/13 10:20:11;;;;;;;9.35;3.58;;;;;;;22.81;60.66;101507.19;5111043;28;20008;-68
2023/08/13 10:22:40;;;;;;;8.57;3.53;;;;;;;22.83;60.32;101501.63;5111292;28;20537;-68
2023/08/13 10:25:07;;;;;;;10.32;3.45;;;;;;;22.83;59.60;101497.03;5110770;28;20015;-68
2023/08/13 10:27:37;;;;;;;10.75;3.72;;;;;;;22.87;60.69;101508.41;5111125;28;20144;-67
2023/08/13 10:30:07;;;;;;;12.35;3.65;;;;;;;22.81;59.71;101500.91;5110844;28;20030;-68
2023/08/13 10:32:37;;;;;;;8.35;2.95;;;;;;;22.72;59.66;101497.31;5112296;28;20023;-68
2023/08/13 10:35:39;;;;;;;12.48;3.55;;;;;;;22.70;60.43;101490.34;5112191;28;20031;-68
2023/08/13 10:38:05;;;;;;;9.45;3.60;;;;;;;22.61;61.70;101487.56;5111087;28;20023;-67
2023/08/13 10:40:31;;;;;;;12.57;3.75;;;;;;;22.72;60.75;101482.91;5110492;28;20023;-67
2023/08/13 10:43:02;;;;;;;10.88;3.75;;;;;;;22.99;59.61;101492.72;5110546;28;20108;-67
2023/08/13 10:45:32;;;;;;;9.85;3.58;;;;;;;23.15;59.08;101498.25;5112030;28;20043;-68
2023/08/13 10:48:02;;;;;;;7.55;3.30;;;;;;;23.20;58.06;101489.59;5112235;28;20023;-68
2023/08/13 10:50:47;;;;;;;8.23;3.20;;;;;;;23.36;56.84;101486.97;5110791;28;20485;-68
2023/08/13 10:53:13;;;;;;;9.40;3.15;;;;;;;23.50;55.74;101483.59;5112105;28;20023;-68
2023/08/13 10:56:00;;;;;;;11.02;3.78;;;;;;;23.86;56.75;101485.22;5111627;28;20031;-68
2023/08/13 10:58:35;;;;;;;8.63;2.92;;;;;;;23.99;56.19;101482.84;5111723;28;20098;-68
2023/08/13 11:01:12;;;;;;;12.45;4.03;;;;;;;24.14;54.66;101486.59;5110852;28;20135;-68
2023/08/13 11:03:45;;;;;;;9.98;3.60;;;;;;;24.32;54.24;101486.41;5110726;28;20424;-68
2023/08/13 11:06:11;;;;;;;9.25;4.07;;;;;;;24.47;54.67;101478.41;5110667;28;20016;-68
2023/08/13 11:08:40;;;;;;;11.00;3.03;;;;;;;24.51;54.19;101484.38;5111343;28;20080;-68
2023/08/13 11:11:06;;;;;;;10.00;3.22;;;;;;;24.62;54.26;101478.56;5111931;28;20020;-68
2023/08/13 11:13:32;;;;;;;9.52;3.42;;;;;;;24.59;53.67;101479.78;5110515;28;20064;-68
2023/08/13 11:16:00;;;;;;;13.25;3.20;;;;;;;24.52;54.79;101470.59;5112769;28;20015;-68
2023/08/13 11:18:27;;;;;;;10.50;3.50;;;;;;;24.59;53.24;101457.16;5115571;28;20072;-68